Observations for Trim Market St
| Time | AQI | Temp °C | Hum % | Pres Pa | CO μg/m³ | H₂S μg/m³ | NO μg/m³ | NO₂ μg/m³ | O₃ μg/m³ | SO₂ μg/m³ | PM1 μg/m³ | PM2.5 μg/m³ | PM10 μg/m³ |
|---|---|---|---|---|---|---|---|---|---|---|---|---|---|
| Sunday 23 August 2026 | |||||||||||||
| 19:13 | 3 | 21 | 43 | 65,408 | 0.2 | 0 | 1.28 | 18.65 | 63.21 | 0 | 2.14 | 4.35 | 4.37 |
| 19:11 | 3 | 21.2 | 42 | 65,425 | 0 | 0 | 1.29 | 40.79 | 49.75 | 0 | 0.71 | 3.83 | 4.22 |
| 19:07 | 3 | 21.5 | 42 | 65,479 | 0 | 0 | 1.11 | 15.72 | 65.57 | 0 | 0.71 | 3.86 | 4.35 |
| 19:06 | 3 | 21.5 | 42 | 65,497 | 0 | 0 | 1.1 | 13.33 | 73.46 | 0 | 1.43 | 3.87 | 4.26 |
| 19:05 | 3 | 21.6 | 41 | 65,519 | 0 | 0 | 1.1 | 12.45 | 75.02 | 0 | 0.71 | 3.35 | 3.54 |
| 19:04 | 3 | 21.6 | 41 | 65,517 | 0 | 0 | 1.15 | 12.87 | 77.09 | 0 | 0.71 | 3.35 | 3.68 |
| 19:03 | 3 | 21.7 | 41 | 65,515 | 0 | 0 | 1.19 | 12.54 | 69.49 | 0 | 0.71 | 3.88 | 4.27 |
| 19:02 | 3 | 21.7 | 41 | 65,513 | 0 | 0 | 1.18 | 14.08 | 71.6 | 0 | 1.43 | 3.88 | 4.27 |
| 19:01 | 3 | 21.8 | 41 | 65,509 | 0 | 0 | 1.15 | 13.58 | 76.01 | 0 | 0.71 | 3.89 | 4.28 |
| 19:00 | 3 | 21.8 | 41 | 65,503 | 0 | 0 | 1.14 | 23.15 | 60.25 | 0 | 0.71 | 3.89 | 4.28 |
| 18:59 | 3 | 21.8 | 41 | 65,517 | 0 | 0 | 1.07 | 17.41 | 69.65 | 0 | 2.85 | 6.01 | 7.53 |
| 18:58 | 3 | 21.9 | 41 | 65,515 | 0 | 0 | 1.04 | 14.55 | 71.67 | 0 | 0.71 | 3.38 | 3.52 |
| 18:57 | 3 | 21.9 | 40 | 65,538 | 0 | 0 | 0.98 | 14.09 | 77.02 | 0 | 1.43 | 4.44 | 4.89 |
| 18:56 | 3 | 21.9 | 40 | 65,538 | 0 | 0 | 1 | 14.1 | 73.62 | 0 | 1.43 | 4.45 | 5.12 |
| 18:55 | 3 | 21.9 | 40 | 65,538 | 0 | 0 | 1.03 | 14.23 | 89.75 | 0 | 2.14 | 6.04 | 10.74 |
| 18:54 | 3 | 21.9 | 40 | 65,536 | 0 | 0 | 1.04 | 14.13 | 67 | 0 | 2.14 | 4.99 | 5.11 |
| 18:48 | 3 | 22.1 | 40 | 65,503 | 0 | 0 | 1.12 | 16.53 | 63.59 | 0 | 2.14 | 6.05 | 6.72 |
| 18:46 | 3 | 22.1 | 40 | 65,505 | 0 | 0 | 1.01 | 9.52 | 84.52 | 0 | 0.71 | 3.42 | 5.11 |
| 18:44 | 3 | 22.2 | 40 | 65,517 | 0 | 0 | 0.95 | 8.18 | 98.61 | 0 | 2.14 | 5.01 | 5.11 |
| 18:42 | 3 | 22.3 | 40 | 65,538 | 0 | 0 | 0.9 | 8.36 | 75.55 | 0 | 2.14 | 5.01 | 5.11 |